Impacts TAF Board
For situational awareness. Not to be used for flight planning purposes.
IDs:

KSEA - Seattle-Tacoma Intl, WA, US

Issued at 1120 UTC 15 Oct 2018
Updated at 1447 UTC 15 Oct 2018
Potential Impact None Slight Moderate High
Time1353Z 15/15Z 15/16Z 15/17Z 15/18Z 15/19Z 15/20Z 15/21Z 15/22Z 15/23Z 16/00Z 16/01Z 16/02Z 16/03Z>>
Type OBS PRVL PRVL PRVL PRVL PRVL PRVL PRVL PRVL PRVL PRVL PRVL PRVL PRVL
VIS 10 >6 >6 >6 >6 >6 >6 >6 >6 >6 >6 >6 >6 >6
CIG -- -- -- -- -- -- -- -- -- -- -- -- -- --
Cover CLR SCT SCT SCT SKC SKC SKC SKC SKC SKC SKC SKC SKC SKC
FltCat VFR VFR VFR VFR VFR VFR VFR VFR VFR VFR VFR VFR VFR VFR
WX -- -- -- -- -- -- -- -- -- -- -- -- -- --
WDir 30 360 360 360 10 10 10 10 10 10 10 10 10 10
WSpd 12 3 3 3 7 7 7 7 7 7 7 7 7 7
WGst -- -- -- -- -- -- -- -- -- -- -- -- -- --
Raw TAF
KSEA 151120Z 1512/1618 36003KT P6SM SCT250
  FM151800 01007KT P6SM SKC
  FM160600 36003KT P6SM SKC


Raw METAR
KSEA 151353Z 03012KT 10SM CLR 08/04 A3035 RMK AO2 SLP284 T00830044
KSEA 151253Z 02008KT 10SM CLR 08/05 A3035 RMK AO2 SLP283 T00830050
KSEA 151153Z 03007KT 10SM CLR 09/05 A3035 RMK AO2 SLP283 T00890050 10117 20067 58000

METAR Board
Radar Display
Forecast Discussion
For situational awareness. Not to be used for flight planning purposes.